Date,TemperatureHighF,TemperatureAvgF,TemperatureLowF,DewpointHighF,DewpointAvgF,DewpointLowF,HumidityHigh,HumidityAvg,HumidityLow,PressureMaxIn,PressureMinIn,WindSpeedMaxMPH,WindSpeedAvgMPH,GustSpeedMaxMPH,PrecipitationSumIn
2013-8-1,86.0,84.0,83.0,80.0,77.0,73.0,89,79,67,30.04,29.95,20,12,22,0.00
2013-8-2,88.0,83.9,82.0,83.0,78.6,76.0,90,84,74,30.09,29.95,12,5,13,0.00
2013-8-3,89.0,84.9,83.0,81.0,77.9,72.0,91,80,65,30.14,30.05,15,7,16,0.00
2013-8-4,88.0,84.9,83.0,81.0,77.7,73.0,91,79,66,30.13,30.05,7,2,8,0.00
2013-8-5,87.0,84.9,84.0,79.0,76.1,69.0,81,75,55,30.09,30.00,14,5,15,0.00
2013-8-6,85.0,82.0,76.0,81.0,79.4,73.0,98,91,80,30.02,29.93,17,9,20,0.00
2013-8-7,85.0,83.8,83.0,81.0,79.5,77.0,93,87,78,29.97,29.92,22,11,23,0.00
2013-8-8,85.0,83.7,81.0,80.0,77.2,71.0,89,80,68,29.99,29.91,36,21,39,0.00
2013-8-9,84.0,82.4,77.0,79.0,75.7,71.0,88,80,68,30.03,29.93,41,19,48,0.00
2013-8-10,86.0,84.3,83.0,81.0,79.0,77.0,93,83,76,30.10,30.00,30,23,32,0.00
2013-8-11,86.0,84.6,84.0,81.0,80.4,79.0,91,87,81,30.12,30.04,28,22,28,0.00
2013-8-12,85.0,84.1,83.0,80.0,76.7,74.0,86,78,73,30.09,30.01,23,18,24,0.00
2013-8-13,86.0,83.2,83.0,81.0,76.7,-99.9,88,83,75,30.04,29.98,17,14,18,0.00
2013-8-14,85.0,83.0,83.0,82.0,76.3,-99.9,94,82,71,30.03,29.95,17,14,18,0.00
2013-8-15,87.0,76.8,79.0,82.0,64.7,-99.9,94,85,83,30.07,29.98,16,11,18,0.00
2013-8-16,86.0,82.6,83.0,84.0,78.9,-99.9,98,93,92,30.06,29.99,28,15,31,0.00
2013-8-17,86.0,83.9,84.0,83.0,78.8,-99.9,96,86,79,30.06,30.00,20,17,22,0.00
2013-8-18,85.0,84.0,82.0,82.0,80.3,78.0,98,88,81,30.06,29.98,23,20,25,0.00
2013-8-19,86.0,79.3,80.0,83.0,70.4,-99.9,98,86,81,30.06,29.97,23,16,25,0.00
2013-8-20,85.0,82.6,82.0,81.0,76.6,-99.9,93,85,79,30.04,29.97,22,16,23,0.00
2013-8-21,85.0,83.9,77.0,82.0,79.9,76.0,97,87,79,30.06,29.97,45,18,47,0.00
2013-8-22,86.0,83.6,80.0,83.0,80.9,77.0,98,92,84,30.04,29.95,32,21,34,0.00
2013-8-23,86.0,84.4,84.0,82.0,79.5,78.0,92,85,77,30.01,29.96,17,12,20,0.00
2013-8-24,87.0,83.8,83.0,81.0,78.0,-99.9,90,84,79,30.09,29.98,17,11,18,0.00
2013-8-25,85.0,84.0,83.0,81.0,80.2,78.0,92,88,81,30.14,30.03,15,11,16,0.00
2013-8-26,84.0,80.9,78.0,81.0,77.7,74.0,96,89,78,30.12,30.01,23,13,25,0.00
2013-8-27,82.0,80.6,78.0,78.0,75.8,72.0,98,85,71,30.06,29.98,24,12,26,0.00
2013-8-28,85.0,82.4,81.0,79.0,78.2,77.0,91,86,80,30.04,29.97,11,6,13,0.00
2013-8-29,89.0,83.4,81.0,83.0,79.8,77.0,95,89,74,30.04,29.97,8,4,9,0.00
2013-8-30,86.0,83.0,82.0,83.0,79.1,77.0,94,88,81,30.04,29.95,9,5,10,0.00
2013-8-31,86.0,83.1,82.0,82.0,77.7,-99.9,93,85,79,30.01,29.94,14,7,15,0.00